Terminal Aerodrome Forecast
Issued by NWS

Home | Current Version | Previous Version | Text Only | Print | Product List | Glossary On
Versions: 1 2 3 4 5 6 7 8 9 10 11 12 13 14 15 16 17 18 19 20
000
FTUS45 KABQ 312325
TAFTCC
TAF
KTCC 312325Z 0100/0124 15006KT P6SM VCSH FEW015 SCT040 BKN100
     FM010600 VRB04KT P6SM FEW030 SCT060
      TEMPO 0110/0114 3SM BR SCT009 BKN015
     FM011800 09005KT P6SM SCT015 BKN035
     FM012100 11008KT P6SM VCSH SCT025 BKN050=

USA.gov is the U.S. government's official web portal to all federal, state and local government web resources and services.